Sign in:
Email
 Password  save:
  
 Company Reports 
 
   
My Recent Searches
  Help
 
   
 
 
Get Institutions for : 
AutoNation Inc (AN)    
$50.23 0.00 (0.00%) as of 4:30 Mon 10/20


Download
     
Institutional Holders
Viewing Quarter :
  
Total Institutions: 271    2
Total shares held : 
71,983,357  
% of shares held : 
59.53%  
Changes In:
New/increased positions vs   
old/decreased positions : 
  49  
Amount of shares held : 
-4,788,921  
% of shares held change : 
  -3.96%  
Quarter Price vs. Current Price:
Last Quarter's Starting Price
$60.92  
Last Quarter's Ending Price : 
$50.31  
Last Quarter's Average Price
$54.85  
Change from last quarter's     
avg. price to the last closing  : 
4.62 (8.42%)  




 
All Securities Held :
Positions
     Shares
% Of
Total Shares
New Positions :
33
 2,039,347
 2.83%
 
Increased Positions :
129
 7,942,062
 11.03%
 
Unchanged Positions :
31
 9,413,699
 13.08%
 
Decreased Positions :
78
-8,186,512
-11.37%
 
Closed Positions :
35
-6,583,818
-9.15%
 
Guru Positions :
2
8,922,526
 12.4%
 
View holdings for period: 
12-31-2012 View holdings for period: 
3-31-2013 View holdings for period: 
6-30-2013 View holdings for period: 
9-30-2013 View holdings for period: 
12-31-2013 View holdings for period: 
3-31-2014 View holdings for period: 
6-30-2014 View holdings for the current period

  Page 1 of 1  
Free Registration Required For Full Results


            Institution Name
Portfolio
Position
New/Closed
Position

Filing Date

Total Shares

Total Value

Change in Shares

File
   RBS PARTNERS LP -- Notable Guru -- 2 - 2014-09-30 8,735,116 $439,464,000 -3,080,461
   CAPITAL RESEARCH GLOBAL INVESTORS 167 - 2014-09-30 6,519,000 $327,971,000 0
   VANGUARD GROUP INC 779 - 2014-09-30 5,532,087 $278,319,000 694,229
   HORIZON KINETICS LLC 9 - 2014-09-30 4,713,310 $237,127,000 -96,101
   OZ MANAGEMENT LP 36 - 2014-09-30 4,452,429 $224,002,000 1,956,457
   STATE STREET CORP 666 - 2014-09-30 3,114,252 $156,666,000 493,095
   SCOPIA MANAGEMENT INC 12 - 2014-09-30 2,446,927 $123,105,000 603,560
   BLACKROCK INSTITUTIONAL TRUST COMPANY - 2014-09-30 2,028,161 $102,037,000 241,414
   BILL & MELINDA GATES FOUNDATION TRUST 16 - 2014-09-30 1,898,716 $95,524,000 0
   EMINENCE CAPITAL LLC 36 - 2014-09-30 1,662,323 $83,631,000 238,481
   BANK OF AMERICA CORP /DE/ 546 - 2014-09-30 1,396,607 $70,263,000 -59,760
   NEW MOUNTAIN VANTAGE ADVISERS LLC 12 - 2014-09-30 1,183,574 $59,546,000 327,792
   GUGGENHEIM CAPITAL LLC 139 - 2014-09-30 1,180,683 $59,400,000 -296,217
   GLENVIEW CAPITAL MANAGEMENT LLC 66 - 2014-09-30 1,111,076 $55,898,000 490,400
   SIRIOS CAPITAL MANAGEMENT L P 25 - 2014-09-30 1,054,179 $53,036,000 -1,782,008
   GAMCO INVESTORS INC ET AL - 2014-09-30 1,044,029 $52,525,000 -10,600
   HIGHLINE CAPITAL MANAGEMENT LLC 19 - 2014-09-30 1,034,700 $52,056,000 391,000
   WELLS FARGO & CO/MN 752 - 2014-09-30 989,492 $49,780,000 -2,315
   FMR LLC 1308 - 2014-09-30 942,446 $47,414,000 -46,657
   BLACKROCK FUND ADVISORS - 2014-09-30 910,988 $45,832,000 111,002
   NORTHERN TRUST CORP 858 - 2014-09-30 900,337 $45,295,000 133,838
   CLOUGH CAPITAL PARTNERS L P 9 - 2014-09-30 870,400 $43,790,000 178,100
   BANK OF NEW YORK MELLON CORP 977 - 2014-09-30 815,238 $41,014,000 49,194
   APEX CAPITAL MANAGEMENT 31 - 2014-06-30 632,414 $37,742,000 65,822
   LOOMIS SAYLES & CO L P 118 - 2014-09-30 744,227 $37,442,000 -44,028
   PORTER ORLIN LLC 31 - 2014-09-30 695,000 $34,965,000 -159,000
   ECHO STREET CAPITAL MANAGEMENT LLC 8 *New 2014-09-30 622,817 $31,334,000 622,817
   AXIOM INTERNATIONAL INVESTORS LLC /DE 60 - 2014-09-30 578,600 $29,109,000 -566,587
   GEODE CAPITAL MANAGEMENT LLC 671 - 2014-09-30 565,399 $28,407,000 109,133
   POLAR CAPITAL LLP 65 - 2014-09-30 460,870 $23,186,000 0
   EVERCORE WEALTH MANAGEMENT, LLC 34 - 2014-09-30 434,088 $21,817,000 22,673
   BLACKROCK GROUP LTD - 2014-09-30 424,274 $21,347,000 40,987
   EATON VANCE MANAGEMENT 217 - 2014-09-30 422,695 $21,266,000 -862,104
   GABELLI FUNDS LLC - 2014-09-30 398,000 $20,023,000 800
   DIMENSIONAL FUND ADVISORS INC 1652 - 2014-09-30 393,849 $19,816,000 139,089
   ZEKE CAPITAL ADVISORS, LLC 1 - 2014-09-30 380,552 $19,146,000 0
   MORGAN STANLEY 1483 - 2014-09-30 372,631 $18,747,000 171,089
   GOLDMAN SACHS GROUP INC/ 1288 - 2014-09-30 363,372 $18,281,000 114,793
   ALLIANZ ASSET MANAGEMENT AG 617 - 2014-09-30 360,899 $18,157,000 -13,870
   FIRST TRUST ADVISORS LP 500 - 2014-09-30 304,546 $15,322,000 85,454
   Adams Hall Wealth Advisors LLC 12 - 2014-06-30 256,549 $15,311,000 0
   PROXIMA CAPITAL MANAGEMENT, LLC 21 *New 2014-09-30 300,000 $15,093,000 300,000
   SUSQUEHANNA INTERNATIONAL GROUP, LLP 410 - 2014-09-30 296,725 $14,929,000 129,551
   SPEARS ABACUS ADVISORS LLC 25 - 2014-09-30 295,728 $14,878,000 1,133
   CREDIT SUISSE/ 913 - 2014-09-30 292,600 $14,721,000 175,826
   BLACKROCK INVESTMENT MANAGEMENT LLC - 2014-09-30 224,041 $11,272,000 18,725
   NEW YORK STATE COMMON RETIREMENT FUND 847 - 2014-09-30 220,631 $11,100,000 -82,676
   SCHWAB CHARLES INVESTMENT MANAGEMENT INC 794 - 2014-06-30 176,298 $10,522,000 3,322
   Winton Capital Group Ltd - 2014-09-30 206,999 $10,414,000 115,411
   UBS GLOBAL ASSET MANAGEMENT AMERICAS INC - 2014-09-30 200,397 $10,083,000 29,444
   SUMITOMO MITSUI TRUST HOLDINGS, INC. 635 - 2014-09-30 183,646 $9,239,000 -3,874
   DEUTSCHE BANK AG 1377 - 2014-09-30 177,737 $8,939,000 93,786
   CALIFORNIA PUBLIC EMPLOYEES RETIREMENT SYSTEM 1056 - 2014-09-30 162,500 $8,175,000 -9,070
   INVESCO LTD 1494 - 2014-09-30 154,065 $7,751,000 18,965
   CITADEL ADVISORS LLC 873 - 2014-09-30 150,953 $7,594,000 36,518
   Private Capital Management LLC 44 - 2014-09-30 147,747 $7,433,000 -14,130
   LEGAL & GENERAL GROUP PLC 688 - 2014-09-30 146,057 $7,348,000 -987
   MILLENNIUM MANAGEMENT LLC 989 - 2014-09-30 143,495 $7,219,000 -143,339
   Point72 Asset Management L.P. 312 *New 2014-09-30 143,500 $7,219,000 143,500
   BLACKROCK INC. - 2014-09-30 142,612 $7,174,000 26,013
   HUTCHIN HILL CAPITAL, LP 66 *New 2014-09-30 142,500 $7,169,000 142,500
   EverPoint Asset Management LLC 181 *New 2014-09-30 140,310 $7,059,000 140,310
   MITSUBISHI UFJ TRUST & BANKING CORP 649 - 2014-09-30 139,922 $7,039,000 -6,911
   CALIFORNIA STATE TEACHERS RETIREMENT SYSTEM 808 - 2014-09-30 134,316 $6,757,000 1,462
   Atlantic Trust Group LLC 245 - 2014-09-30 133,794 $6,732,000 -56
   TIAA CREF INVESTMENT MANAGEMENT LLC 1394 - 2014-09-30 132,066 $6,644,000 -65,528
   ALLIANCEBERNSTEIN L.P. 976 - 2014-09-30 130,706 $6,576,000 15,757
   KOREA INVESTMENT CORP 316 - 2014-09-30 125,600 $6,319,000 45,000
   Tyvor Capital LLC 3 *New 2014-09-30 120,080 $6,041,000 120,080
   PARAMETRIC PORTFOLIO ASSOCIATES 1047 - 2014-09-30 118,372 $5,955,000 -7,512
   PRINCIPAL FINANCIAL GROUP INC 1265 - 2014-09-30 115,268 $5,799,000 17,427
   OLD WEST INVESTMENT MANAGEMENT, LLC 8 - 2014-09-30 108,950 $5,481,000 1,031
   PRICE T ROWE ASSOCIATES INC /MD/ 1440 - 2014-09-30 106,001 $5,333,000 3,500
   LEUTHOLD WEEDEN CAPITAL MANAGEMENT LLC 87 - 2014-09-30 103,913 $5,228,000 -6,674
   RHUMBLINE ADVISERS 752 - 2014-09-30 102,875 $5,176,000 273
   MARINER WEALTH ADVISORS, LLC 33 - 2014-09-30 100,000 $5,031,000 -156,549
   PRUDENTIAL FINANCIAL INC 968 - 2014-09-30 95,372 $4,798,000 782
   CANADA PENSION PLAN INVESTMENT BOARD 612 - 2014-09-30 93,733 $4,716,000 40,049
   BARCLAYS PLC 955 - 2014-09-30 93,525 $4,676,000 -29,228
   MIZUHO TRUST & BANKING CO., LTD. 648 *New 2014-09-30 92,497 $4,665,000 92,497
   NEW YORK STATE TEACHERS RETIREMENT SYSTEM - 2014-09-30 90,372 $4,547,000 1,406
   SHAKER INVESTMENTS LLC/OH 7 - 2014-09-30 87,817 $4,418,000 -12,845
   J P MORGAN CHASE & CO 1981 - 2014-09-30 83,025 $4,176,000 59,535
   MANUFACTURERES LIFE INSURANCE CO 1073 - 2014-09-30 81,831 $4,118,000 19,594
   BLACKROCK JAPAN CO LTD - 2014-09-30 80,368 $4,043,000 2,505
   RUSSELL FRANK CO/ 1420 - 2014-09-30 79,969 $4,023,000 -52,505
   CHILTON INVESTMENT CO LLC 88 *New 2014-09-30 78,026 $3,925,000 78,026
   HSBC HOLDINGS PLC 798 - 2014-09-30 75,264 $3,788,000 1,625
   Swiss National Bank 850 - 2014-09-30 74,400 $3,743,000 -1,200
   CREDIT AGRICOLE S A 688 - 2014-09-30 69,261 $3,484,000 -1,478
   DENALI ADVISORS LLC 41 - 2014-09-30 68,800 $3,461,000 -18,300
   STATE BOARD OF ADMINISTRATION OF FLORIDA RETIREMEN 936 - 2014-09-30 65,565 $3,299,000 433
   FIRST REPUBLIC INVESTMENT MANAGEMENT, INC. 303 *New 2014-09-30 63,985 $3,219,000 63,985
   AQR CAPITAL MANAGEMENT LLC 951 - 2014-09-30 63,408 $3,190,000 48,234
   MANAGED ACCOUNT ADVISORS LLC 1595 - 2014-09-30 60,195 $3,028,000 -121,368
   ING INVESTMENT MANAGEMENT LLC 939 - 2014-09-30 59,603 $2,999,000 3,236
   BRANDYWINE ASSET MANAGEMENT LLC 496 - 2014-09-30 59,520 $2,995,000 10,360
   CHEVY CHASE TRUST HOLDINGS, INC. - 2014-09-30 59,468 $2,992,000 14,317
   COMERICA BANK - 2014-09-30 58,096 $2,923,000 1,666
   APG ALL PENSIONS GROUP 782 - 2014-09-30 57,684 $2,902,000 46,905

  100 Records found
  1    
  Page 1 of 1
Free Registration Required For Full Results